Time;durP1;ratioP1;P1;durP2;ratioP2;P2;SDS_P1;SDS_P2;PMS_P1;PMS_P2;Temp;Humidity;BMP_temperature;BMP_pressure;BME280_temperature;BME280_humidity;BME280_pressure;Samples;Min_cycle;Max_cycle;Signal;HPM_P1;HPM_P2
2021/12/18 00:01:32;;;;;;;7.35;4.15;;;;;;;1.39;78.50;98208.48;1730948;82;21461;-81
2021/12/18 00:03:59;;;;;;;5.50;3.77;;;;;;;1.39;78.55;98215.42;1720019;83;20993;-81
2021/12/18 00:06:27;;;;;;;8.18;3.80;;;;;;;1.33;78.69;98205.81;1701828;83;21032;-81
2021/12/18 00:08:55;;;;;;;7.55;4.05;;;;;;;1.33;78.65;98212.75;1701869;84;21033;-81
2021/12/18 00:11:22;;;;;;;7.17;4.37;;;;;;;1.32;78.74;98219.70;1683808;84;20981;-81
2021/12/18 00:13:49;;;;;;;7.80;4.83;;;;;;;1.26;79.05;98212.70;1711620;84;21053;-81
2021/12/18 00:16:17;;;;;;;10.08;4.15;;;;;;;1.29;78.88;98216.63;1704268;83;20990;-81
2021/12/18 00:18:50;;;;;;;8.63;4.03;;;;;;;1.29;79.06;98223.16;1717712;83;20962;-81
2021/12/18 00:21:18;;;;;;;7.55;4.35;;;;;;;1.28;78.96;98221.83;1748502;81;21050;-80
2021/12/18 00:23:45;;;;;;;7.97;4.08;;;;;;;1.27;78.93;98227.91;1759624;81;21022;-80
2021/12/18 00:26:11;;;;;;;7.20;4.33;;;;;;;1.21;79.44;98230.05;1758647;81;21010;-81
2021/12/18 00:28:38;;;;;;;8.08;4.20;;;;;;;1.22;79.21;98233.09;1759296;81;21329;-80
2021/12/18 00:31:05;;;;;;;5.78;3.62;;;;;;;1.25;79.12;98240.09;1759447;81;21018;-80
2021/12/18 00:33:32;;;;;;;7.60;4.33;;;;;;;1.24;79.18;98233.98;1758764;81;20966;-80
2021/12/18 00:35:59;;;;;;;7.50;3.50;;;;;;;1.27;79.20;98238.36;1759650;81;21467;-80
2021/12/18 00:38:29;;;;;;;7.75;4.40;;;;;;;1.29;79.09;98239.27;1756363;81;22084;-80
2021/12/18 00:41:13;;;;;;;7.87;4.10;;;;;;;1.30;79.06;98240.57;1750390;81;21053;-80
2021/12/18 00:43:37;;;;;;;5.95;3.92;;;;;;;1.26;79.18;98249.67;1753694;81;21048;-80
2021/12/18 00:46:00;;;;;;;9.20;4.12;;;;;;;1.26;79.08;98249.25;1754502;81;21029;-80
2021/12/18 00:48:28;;;;;;;7.03;4.15;;;;;;;1.26;79.10;98253.17;1744012;81;21067;-80
2021/12/18 00:50:54;;;;;;;5.83;4.00;;;;;;;1.26;79.36;98254.89;1734816;82;21042;-79
2021/12/18 00:53:21;;;;;;;9.23;4.37;;;;;;;1.25;79.26;98262.28;1734267;82;21607;-79
2021/12/18 00:55:51;;;;;;;7.78;3.60;;;;;;;1.28;79.36;98263.19;1734161;82;21022;-79
2021/12/18 00:58:18;;;;;;;7.37;3.77;;;;;;;1.28;79.28;98274.94;1734322;83;21021;-80
2021/12/18 01:00:46;;;;;;;7.78;3.87;;;;;;;1.30;79.19;98274.52;1737993;81;21369;-81
2021/12/18 01:03:19;;;;;;;6.70;4.22;;;;;;;1.28;79.14;98260.58;1747192;80;21005;-80
2021/12/18 01:05:47;;;;;;;8.10;4.15;;;;;;;1.28;79.06;98275.35;1734261;82;20987;-80
2021/12/18 01:08:14;;;;;;;7.58;3.87;;;;;;;1.25;79.17;98275.34;1734061;83;21397;-80
2021/12/18 01:13:25;;;;;;;7.17;3.90;;;;;;;1.24;79.53;98279.67;1734257;83;21043;-78
2021/12/18 01:15:52;;;;;;;6.45;3.70;;;;;;;1.26;79.19;98279.28;1745183;81;20984;-79
2021/12/18 01:23:47;;;;;;;8.48;3.90;;;;;;;1.25;78.98;98286.64;1734209;82;21053;-80
2021/12/18 01:26:13;;;;;;;5.85;3.60;;;;;;;1.26;79.17;98283.20;1734270;83;20981;-79
2021/12/18 01:28:40;;;;;;;8.30;4.10;;;;;;;1.24;78.91;98286.64;1734147;83;21503;-79
2021/12/18 01:31:09;;;;;;;7.45;4.05;;;;;;;1.23;78.96;98285.75;1760449;81;20993;-79
2021/12/18 01:33:36;;;;;;;7.87;4.00;;;;;;;1.23;78.96;98287.06;1764454;81;21390;-79
2021/12/18 01:36:04;;;;;;;5.87;4.00;;;;;;;1.24;78.94;98287.95;1764263;81;20982;-79
2021/12/18 01:38:31;;;;;;;6.72;3.90;;;;;;;1.24;78.86;98291.42;1744392;81;21067;-79
2021/12/18 01:41:01;;;;;;;6.97;4.33;;;;;;;1.25;78.96;98293.62;1734041;83;21448;-79
2021/12/18 01:52:02;;;;;;;7.08;3.17;;;;;;;1.24;78.96;98304.92;1737774;82;20942;-79
2021/12/18 01:54:15;;;;;;;8.58;4.17;;;;;;;1.26;78.99;98304.09;1732189;82;21017;-79
2021/12/18 01:56:42;;;;;;;8.75;3.85;;;;;;;1.29;78.97;98304.10;1734138;82;21040;-78
2021/12/18 01:59:08;;;;;;;6.20;3.72;;;;;;;1.23;78.61;98294.00;1756904;81;21427;-79
2021/12/18 02:01:35;;;;;;;7.05;3.85;;;;;;;1.18;78.66;98295.27;1764467;81;21020;-78
2021/12/18 02:04:01;;;;;;;7.62;3.85;;;;;;;1.19;78.62;98297.02;1764396;81;20990;-78
2021/12/18 02:06:28;;;;;;;7.55;3.58;;;;;;;1.16;78.56;98295.69;1764552;81;20950;-78
2021/12/18 02:08:54;;;;;;;8.10;3.72;;;;;;;1.20;78.58;98302.67;1764665;81;21440;-78
2021/12/18 02:21:46;;;;;;;8.48;4.05;;;;;;;1.04;78.51;98310.31;1746869;81;21069;-78
2021/12/18 02:24:15;;;;;;;5.55;3.30;;;;;;;1.01;78.65;98324.64;1762909;81;21052;-78
2021/12/18 02:26:42;;;;;;;6.42;3.22;;;;;;;0.95;78.54;98326.28;1759607;81;21043;-78
2021/12/18 02:29:13;;;;;;;6.87;3.87;;;;;;;0.97;78.62;98317.63;1737011;82;20986;-78
2021/12/18 02:31:36;;;;;;;6.62;3.62;;;;;;;0.99;78.72;98327.64;1701213;84;21452;-78
2021/12/18 02:34:03;;;;;;;5.95;3.15;;;;;;;1.02;78.40;98335.52;1691215;85;21010;-79
2021/12/18 02:36:30;;;;;;;4.95;3.20;;;;;;;0.94;78.88;98337.14;1701991;83;21039;-79
2021/12/18 02:39:16;;;;;;;4.75;3.10;;;;;;;0.93;79.01;98330.17;1725242;83;20987;-79
2021/12/18 02:43:58;;;;;;;6.80;3.50;;;;;;;1.02;79.13;98340.75;1730620;82;21003;-79
2021/12/18 02:46:24;;;;;;;7.40;3.92;;;;;;;1.04;79.11;98340.77;1730490;82;20980;-79
2021/12/18 02:48:54;;;;;;;7.25;3.70;;;;;;;1.03;78.87;98345.52;1729960;82;21022;-79
2021/12/18 02:51:21;;;;;;;7.67;3.58;;;;;;;1.03;79.01;98345.11;1730799;82;21023;-79
2021/12/18 02:53:51;;;;;;;5.85;4.00;;;;;;;0.98;78.54;98347.19;1730738;82;20972;-79
2021/12/18 02:56:23;;;;;;;7.50;3.70;;;;;;;0.94;78.58;98355.41;1730679;83;21019;-79
2021/12/18 02:58:55;;;;;;;5.90;3.75;;;;;;;0.90;78.55;98350.58;1743759;82;20987;-79
2021/12/18 03:01:25;;;;;;;9.70;5.47;;;;;;;0.87;78.61;98349.21;1730296;83;21539;-79
2021/12/18 03:03:54;;;;;;;8.28;3.72;;;;;;;0.81;79.08;98353.05;1750031;80;21024;-79
2021/12/18 03:06:34;;;;;;;6.15;3.83;;;;;;;0.79;78.92;98349.55;1740039;81;21030;-79
2021/12/18 03:27:50;;;;;;;7.00;3.33;;;;;;;0.54;79.21;98355.64;1750209;82;21047;-80
2021/12/18 03:30:17;;;;;;;8.30;3.35;;;;;;;0.50;79.18;98364.30;1711804;84;21046;-80
2021/12/18 03:32:45;;;;;;;5.83;3.55;;;;;;;0.44;79.61;98365.47;1684377;83;21046;-80
2021/12/18 03:35:14;;;;;;;7.83;4.12;;;;;;;0.39;79.78;98367.61;1688171;84;21081;-80
2021/12/18 03:37:41;;;;;;;5.47;3.42;;;;;;;0.37;79.57;98369.70;1696547;84;20948;-80
2021/12/18 03:40:12;;;;;;;5.90;3.27;;;;;;;0.31;79.71;98369.19;1714974;84;21032;-80
2021/12/18 03:42:39;;;;;;;8.55;3.20;;;;;;;0.24;80.04;98368.20;1731241;82;21029;-80
2021/12/18 03:45:09;;;;;;;7.15;3.62;;;;;;;0.20;80.04;98365.08;1770790;80;21138;-81
2021/12/18 03:47:36;;;;;;;5.78;3.75;;;;;;;0.15;80.37;98368.44;1779638;80;20958;-81
2021/12/18 03:50:04;;;;;;;6.42;3.55;;;;;;;0.12;80.35;98375.38;1780680;80;21017;-81
2021/12/18 03:52:30;;;;;;;6.03;3.35;;;;;;;0.05;80.42;98378.73;1780761;80;20969;-81
2021/12/18 03:54:59;;;;;;;7.55;3.65;;;;;;;0.01;80.63;98384.72;1780851;80;21048;-80
2021/12/18 03:57:26;;;;;;;6.17;3.47;;;;;;;0.00;80.60;98376.46;1780635;80;21034;-80
2021/12/18 03:59:54;;;;;;;8.13;3.85;;;;;;;-0.05;80.93;98380.27;1766464;80;21075;-77
2021/12/18 04:02:20;;;;;;;6.72;3.40;;;;;;;-0.10;81.22;98380.59;1780719;80;21029;-81
2021/12/18 04:04:47;;;;;;;8.43;3.75;;;;;;;-0.11;81.22;98394.48;1780701;80;21071;-81
2021/12/18 04:07:15;;;;;;;6.55;3.55;;;;;;;-0.16;81.58;98395.67;1779520;80;21521;-82
2021/12/18 04:09:42;;;;;;;8.33;3.60;;;;;;;-0.20;81.98;98389.95;1783446;80;21065;-81
2021/12/18 04:12:10;;;;;;;6.20;3.30;;;;;;;-0.18;81.64;98397.80;1777496;80;20994;-81
2021/12/18 04:14:36;;;;;;;8.93;3.75;;;;;;;-0.21;81.47;98399.06;1772696;80;20979;-81
2021/12/18 04:17:03;;;;;;;5.40;3.30;;;;;;;-0.21;81.56;98400.36;1773096;80;20967;-81
2021/12/18 04:19:30;;;;;;;6.40;3.67;;;;;;;-0.25;81.67;98395.48;1773399;80;21499;-81
2021/12/18 04:21:56;;;;;;;8.35;3.87;;;;;;;-0.27;81.68;98402.00;1769605;80;21006;-81
2021/12/18 04:24:23;;;;;;;6.80;3.83;;;;;;;-0.29;81.80;98398.46;1750629;81;21020;-81
2021/12/18 04:26:50;;;;;;;7.55;3.58;;;;;;;-0.32;81.98;98398.42;1755856;81;21080;-81
2021/12/18 04:29:16;;;;;;;7.67;3.75;;;;;;;-0.33;82.11;98412.70;1768805;81;21033;-81
2021/12/18 04:31:44;;;;;;;8.98;3.62;;;;;;;-0.37;82.40;98410.47;1768744;81;21025;-81
2021/12/18 04:34:10;;;;;;;5.70;3.25;;;;;;;-0.37;82.18;98417.39;1768843;81;21470;-81
2021/12/18 04:36:37;;;;;;;8.18;3.42;;;;;;;-0.40;82.41;98419.06;1768750;81;21025;-80
2021/12/18 04:39:05;;;;;;;9.73;3.60;;;;;;;-0.42;81.88;98419.47;1767017;81;20954;-80
2021/12/18 04:41:38;;;;;;;6.58;3.50;;;;;;;-0.44;81.78;98422.89;1702378;84;21088;-80
2021/12/18 04:44:04;;;;;;;6.55;3.80;;;;;;;-0.47;82.35;98440.63;1702933;84;21023;-81
2021/12/18 04:46:32;;;;;;;6.00;3.67;;;;;;;-0.50;82.20;98444.45;1714389;84;22122;-81
2021/12/18 04:48:58;;;;;;;6.58;3.90;;;;;;;-0.50;82.37;98438.39;1714727;84;21338;-76
2021/12/18 04:51:26;;;;;;;8.00;3.47;;;;;;;-0.51;82.01;98435.34;1714302;84;21016;-80
2021/12/18 04:53:52;;;;;;;5.97;4.05;;;;;;;-0.54;82.27;98442.22;1714565;84;21008;-80
2021/12/18 04:56:19;;;;;;;6.40;3.77;;;;;;;-0.55;82.50;98450.88;1714757;83;20987;-80
2021/12/18 04:58:45;;;;;;;7.83;3.72;;;;;;;-0.56;82.38;98449.13;1691298;84;20991;-80
2021/12/18 05:01:12;;;;;;;6.95;4.33;;;;;;;-0.58;82.75;98447.33;1686129;85;21018;-80
2021/12/18 05:03:40;;;;;;;7.80;4.60;;;;;;;-0.59;82.80;98455.96;1686382;85;20991;-80
2021/12/18 05:06:06;;;;;;;7.12;3.67;;;;;;;-0.60;82.92;98455.10;1686222;85;21007;-80
2021/12/18 05:08:33;;;;;;;8.65;4.10;;;;;;;-0.61;82.99;98460.27;1686012;85;20973;-80
2021/12/18 05:10:59;;;;;;;6.90;3.77;;;;;;;-0.62;82.77;98468.48;1686248;85;20990;-80
2021/12/18 05:13:26;;;;;;;5.90;3.52;;;;;;;-0.65;83.26;98464.53;1675933;84;21043;-79
2021/12/18 05:15:52;;;;;;;8.08;4.12;;;;;;;-0.65;82.87;98470.15;1703614;84;21434;-80
2021/12/18 05:18:19;;;;;;;8.25;4.42;;;;;;;-0.65;82.99;98472.75;1703523;83;21005;-79
2021/12/18 05:20:45;;;;;;;13.53;4.58;;;;;;;-0.69;83.11;98472.70;1690648;84;21025;-80
2021/12/18 05:23:12;;;;;;;7.00;3.83;;;;;;;-0.67;82.91;98477.51;1709804;83;21092;-79
2021/12/18 05:25:39;;;;;;;7.55;4.20;;;;;;;-0.68;83.13;98475.76;1711856;83;20970;-79
2021/12/18 05:28:05;;;;;;;7.35;3.70;;;;;;;-0.70;83.34;98480.47;1712575;82;21459;-80
2021/12/18 05:30:32;;;;;;;7.05;3.80;;;;;;;-0.70;83.86;98494.34;1738636;82;20981;-80
2021/12/18 05:32:58;;;;;;;8.33;4.10;;;;;;;-0.73;83.43;98490.39;1727778;82;21011;-80
2021/12/18 05:35:25;;;;;;;7.10;4.15;;;;;;;-0.73;83.20;98494.70;1744860;82;21014;-80
2021/12/18 05:37:54;;;;;;;9.20;4.10;;;;;;;-0.73;83.04;98502.10;1737971;81;20961;-80
2021/12/18 05:40:24;;;;;;;6.17;3.58;;;;;;;-0.74;83.05;98509.45;1717292;83;21068;-80
2021/12/18 05:42:53;;;;;;;7.00;4.78;;;;;;;-0.78;83.56;98512.83;1714251;84;21016;-80
2021/12/18 05:45:20;;;;;;;5.58;3.67;;;;;;;-0.77;83.32;98512.38;1711635;82;20993;-79
2021/12/18 05:47:48;;;;;;;9.63;4.28;;;;;;;-0.81;83.59;98512.33;1746588;82;21052;-80
2021/12/18 05:50:19;;;;;;;7.37;3.45;;;;;;;-0.81;83.25;98522.74;1744160;82;21049;-80
2021/12/18 05:52:47;;;;;;;8.58;3.72;;;;;;;-0.82;83.49;98522.70;1743879;82;20970;-80
2021/12/18 05:55:15;;;;;;;9.43;3.80;;;;;;;-0.82;83.40;98525.30;1743902;82;21044;-80
2021/12/18 05:57:44;;;;;;;9.15;3.55;;;;;;;-0.82;83.35;98526.16;1743795;81;21028;-80
2021/12/18 06:00:12;;;;;;;7.70;3.98;;;;;;;-0.86;83.77;98526.95;1718137;82;20973;-80
2021/12/18 06:02:39;;;;;;;7.67;4.10;;;;;;;-0.84;83.31;98534.36;1714238;83;21060;-80
2021/12/18 06:05:07;;;;;;;6.25;3.50;;;;;;;-0.87;83.54;98536.02;1714516;83;21005;-80
2021/12/18 06:07:54;;;;;;;7.47;3.58;;;;;;;-0.90;84.08;98541.13;1714509;82;20977;-80
2021/12/18 06:10:07;;;;;;;10.38;4.10;;;;;;;-0.87;83.68;98538.63;1711950;83;21088;-80
2021/12/18 06:12:33;;;;;;;5.90;4.05;;;;;;;-0.89;83.70;98548.09;1715087;82;21006;-80
2021/12/18 06:15:00;;;;;;;7.10;3.20;;;;;;;-0.90;83.76;98552.84;1743936;81;21010;-80
2021/12/18 06:17:26;;;;;;;7.00;3.55;;;;;;;-0.86;83.76;98559.48;1726466;82;21051;-81
2021/12/18 06:19:53;;;;;;;7.87;3.45;;;;;;;-0.85;83.46;98560.34;1714470;84;21036;-80
2021/12/18 06:22:19;;;;;;;8.55;3.47;;;;;;;-0.84;83.49;98568.61;1720768;81;21610;-80
2021/12/18 06:24:45;;;;;;;6.22;2.85;;;;;;;-0.81;83.49;98566.09;1701627;83;20990;-81
2021/12/18 06:27:12;;;;;;;6.10;3.45;;;;;;;-0.81;83.42;98575.20;1672554;84;21023;-80
2021/12/18 06:29:39;;;;;;;4.97;3.42;;;;;;;-0.79;83.36;98582.61;1672063;85;20989;-80
2021/12/18 06:32:06;;;;;;;7.87;3.50;;;;;;;-0.77;83.27;98587.45;1671949;86;21433;-79
2021/12/18 06:34:34;;;;;;;9.00;3.60;;;;;;;-0.77;83.17;98589.16;1691484;85;21002;-80
2021/12/18 06:37:00;;;;;;;8.10;4.00;;;;;;;-0.77;83.33;98586.16;1675384;84;20965;-80
2021/12/18 06:39:27;;;;;;;7.08;3.62;;;;;;;-0.76;83.29;98598.73;1714546;83;21054;-80
2021/12/18 06:41:53;;;;;;;7.30;3.95;;;;;;;-0.75;83.28;98603.98;1759655;81;20971;-80
2021/12/18 06:44:20;;;;;;;6.97;3.65;;;;;;;-0.73;83.22;98597.11;1716280;83;21458;-80
2021/12/18 06:46:46;;;;;;;6.95;3.70;;;;;;;-0.72;83.41;98604.48;1736795;83;21056;-80
2021/12/18 06:49:13;;;;;;;7.35;3.22;;;;;;;-0.74;83.16;98612.27;1737040;82;21017;-80
2021/12/18 06:51:39;;;;;;;7.83;3.72;;;;;;;-0.72;83.07;98618.39;1736793;82;21024;-80
2021/12/18 06:54:06;;;;;;;5.78;3.72;;;;;;;-0.72;83.06;98598.86;1736880;83;21010;-80
2021/12/18 06:56:33;;;;;;;9.83;3.70;;;;;;;-0.71;83.07;98620.58;1748307;81;21003;-80
2021/12/18 06:59:00;;;;;;;7.50;3.87;;;;;;;-0.70;83.02;98618.43;1767155;81;21017;-80
2021/12/18 07:01:26;;;;;;;9.55;3.95;;;;;;;-0.72;82.82;98626.20;1767259;81;21021;-80
2021/12/18 07:03:53;;;;;;;7.10;3.83;;;;;;;-0.72;82.83;98615.78;1767281;81;21041;-80
2021/12/18 07:06:19;;;;;;;5.37;3.33;;;;;;;-0.68;82.70;98604.61;1767245;81;21005;-80
2021/12/18 07:08:45;;;;;;;7.37;3.75;;;;;;;-0.67;82.70;98614.59;1767259;81;21002;-79
2021/12/18 07:11:12;;;;;;;7.60;3.80;;;;;;;-0.67;82.71;98614.59;1753351;81;21040;-80
2021/12/18 07:13:39;;;;;;;7.85;3.20;;;;;;;-0.64;82.57;98609.88;1736899;82;20994;-80
2021/12/18 07:16:05;;;;;;;5.80;3.25;;;;;;;-0.62;82.60;98613.42;1736992;83;20962;-81
2021/12/18 07:18:33;;;;;;;7.87;3.60;;;;;;;-0.63;82.37;98611.66;1737022;83;21029;-80
2021/12/18 07:21:00;;;;;;;6.67;3.40;;;;;;;-0.59;82.41;98618.68;1736759;83;21041;-81
2021/12/18 07:23:26;;;;;;;5.75;3.40;;;;;;;-0.60;82.44;98623.44;1738212;82;21562;-80
2021/12/18 07:25:53;;;;;;;5.17;3.08;;;;;;;-0.57;82.08;98624.42;1756745;81;20986;-80
2021/12/18 07:28:19;;;;;;;5.47;3.40;;;;;;;-0.57;81.91;98622.22;1769497;81;21056;-80
2021/12/18 07:30:46;;;;;;;4.05;2.50;;;;;;;-0.56;81.85;98627.88;1769559;81;20989;-80
2021/12/18 07:33:12;;;;;;;4.35;2.70;;;;;;;-0.56;81.53;98635.28;1769626;81;21049;-80
2021/12/18 07:35:40;;;;;;;6.90;3.33;;;;;;;-0.54;81.40;98633.59;1769563;80;20946;-80
2021/12/18 07:38:07;;;;;;;5.40;2.95;;;;;;;-0.50;81.30;98631.08;1768117;81;21001;-80
2021/12/18 07:40:35;;;;;;;7.55;3.10;;;;;;;-0.47;81.55;98634.63;1767748;81;20946;-80
2021/12/18 07:43:02;;;;;;;5.58;3.17;;;;;;;-0.44;81.40;98638.63;1769730;80;20997;-80
2021/12/18 07:45:33;;;;;;;7.85;3.37;;;;;;;-0.41;81.00;98643.03;1769693;81;21404;-80
2021/12/18 07:47:58;;;;;;;6.95;3.40;;;;;;;-0.35;81.01;98639.27;1769064;81;21073;-80
2021/12/18 07:50:24;;;;;;;6.10;3.10;;;;;;;-0.32;80.94;98643.26;1769784;81;20989;-79
2021/12/18 07:52:50;;;;;;;7.60;3.35;;;;;;;-0.25;80.65;98637.75;1769741;81;20981;-80
2021/12/18 07:55:18;;;;;;;6.55;3.27;;;;;;;-0.25;79.98;98635.58;1742160;81;21450;-80
2021/12/18 07:57:45;;;;;;;4.92;2.98;;;;;;;-0.20;80.20;98633.97;1739280;82;21391;-80
2021/12/18 08:00:14;;;;;;;5.47;3.12;;;;;;;-0.15;79.68;98641.06;1739388;82;21474;-80
2021/12/18 08:02:42;;;;;;;5.70;3.25;;;;;;;-0.12;80.02;98649.38;1739126;82;21029;-80
2021/12/18 08:05:09;;;;;;;5.67;3.20;;;;;;;-0.09;79.14;98648.12;1739270;82;21040;-80
2021/12/18 08:07:36;;;;;;;5.92;3.33;;;;;;;-0.03;79.10;98648.70;1744986;81;21017;-80
2021/12/18 08:10:05;;;;;;;5.22;2.20;;;;;;;0.01;78.54;98651.84;1769695;81;21010;-80
2021/12/18 08:12:31;;;;;;;4.35;2.27;;;;;;;0.06;78.06;98654.13;1769657;81;21025;-81
2021/12/18 08:14:58;;;;;;;4.40;2.65;;;;;;;0.15;77.83;98656.06;1769775;81;20982;-80
2021/12/18 08:17:26;;;;;;;4.65;2.40;;;;;;;0.23;77.14;98647.11;1769242;81;20961;-80
2021/12/18 08:19:53;;;;;;;4.45;2.80;;;;;;;0.31;78.03;98642.95;1769684;81;21005;-80
2021/12/18 08:22:20;;;;;;;4.37;2.58;;;;;;;0.41;77.83;98644.46;1754059;81;20982;-79
2021/12/18 08:24:47;;;;;;;4.72;2.25;;;;;;;0.48;76.84;98646.34;1733982;82;21067;-80
2021/12/18 08:27:13;;;;;;;4.00;2.35;;;;;;;0.55;76.24;98643.03;1734550;82;20993;-80
2021/12/18 08:29:40;;;;;;;18.82;9.23;;;;;;;0.63;75.63;98650.57;1735825;82;20993;-80
2021/12/18 08:32:07;;;;;;;10.05;4.83;;;;;;;0.70;76.09;98642.45;1718418;82;21072;-80
2021/12/18 08:34:34;;;;;;;3.55;2.00;;;;;;;0.78;74.83;98653.05;1739304;82;20994;-80
2021/12/18 08:37:00;;;;;;;3.67;2.50;;;;;;;0.85;75.37;98634.48;1758793;81;21000;-80
2021/12/18 08:39:28;;;;;;;3.60;1.70;;;;;;;0.89;75.18;98642.42;1769034;81;20993;-80
2021/12/18 08:41:58;;;;;;;4.53;1.95;;;;;;;0.95;75.08;98645.55;1769553;80;21383;-80
2021/12/18 08:44:25;;;;;;;5.17;2.15;;;;;;;1.01;73.75;98648.72;1760746;81;20986;-80
2021/12/18 08:46:51;;;;;;;4.42;2.00;;;;;;;1.07;73.45;98644.05;1739322;82;21036;-80
2021/12/18 08:49:18;;;;;;;4.05;1.75;;;;;;;1.10;74.15;98648.90;1739325;82;21017;-81
2021/12/18 08:51:44;;;;;;;3.22;1.60;;;;;;;1.19;73.72;98653.41;1767922;81;21423;-81
2021/12/18 08:54:11;;;;;;;4.70;1.80;;;;;;;1.22;73.17;98648.66;1769726;80;21038;-81
2021/12/18 08:56:37;;;;;;;4.15;1.80;;;;;;;1.25;71.86;98650.04;1769733;81;21076;-81
2021/12/18 08:59:05;;;;;;;3.77;1.77;;;;;;;1.32;72.67;98647.98;1769484;81;21009;-81
2021/12/18 09:01:31;;;;;;;4.95;1.80;;;;;;;1.37;72.21;98645.47;1769672;81;21064;-81
2021/12/18 09:03:58;;;;;;;2.00;1.42;;;;;;;1.41;71.50;98644.67;1769315;81;20993;-81
2021/12/18 09:06:25;;;;;;;3.12;1.90;;;;;;;1.46;70.39;98650.86;1769389;81;20947;-81
2021/12/18 09:08:52;;;;;;;3.08;1.90;;;;;;;1.47;70.75;98656.53;1769870;80;22149;-80
2021/12/18 09:11:19;;;;;;;3.90;1.98;;;;;;;1.53;70.71;98644.02;1769526;81;20978;-81
2021/12/18 09:13:47;;;;;;;3.42;1.70;;;;;;;1.56;69.92;98659.72;1769402;80;20974;-80
2021/12/18 09:16:14;;;;;;;2.85;1.70;;;;;;;1.60;69.94;98646.28;1769527;81;21017;-80
2021/12/18 09:18:41;;;;;;;2.65;1.60;;;;;;;1.60;70.09;98644.55;1755868;80;21028;-81
2021/12/18 09:21:08;;;;;;;3.20;1.55;;;;;;;1.63;71.95;98648.95;1748085;80;21486;-79
2021/12/18 09:23:34;;;;;;;2.37;1.47;;;;;;;1.73;70.45;98644.33;1726283;82;21025;-79
2021/12/18 09:26:01;;;;;;;2.90;1.87;;;;;;;1.83;70.42;98635.78;1703952;83;20994;-79
2021/12/18 09:28:28;;;;;;;3.90;1.70;;;;;;;1.87;70.71;98631.47;1703999;83;21001;-79
2021/12/18 09:30:55;;;;;;;6.10;2.22;;;;;;;1.92;70.56;98633.77;1704067;83;21478;-79
2021/12/18 09:33:22;;;;;;;3.17;1.80;;;;;;;1.95;69.85;98627.70;1714047;83;21346;-79
2021/12/18 09:35:49;;;;;;;4.60;1.80;;;;;;;2.01;69.96;98627.79;1730860;82;21030;-80
2021/12/18 09:38:15;;;;;;;2.72;1.70;;;;;;;2.03;68.83;98631.29;1730234;82;20954;-81
2021/12/18 09:40:43;;;;;;;4.15;2.00;;;;;;;2.07;69.87;98638.74;1730263;83;21093;-81
2021/12/18 09:43:09;;;;;;;2.65;1.75;;;;;;;2.06;70.06;98620.89;1715543;83;20958;-81
2021/12/18 09:45:36;;;;;;;3.17;1.80;;;;;;;2.07;69.88;98624.36;1717792;83;20994;-81
2021/12/18 09:48:05;;;;;;;4.08;1.67;;;;;;;2.03;70.28;98625.20;1713042;83;20970;-78
2021/12/18 09:50:35;;;;;;;3.37;1.95;;;;;;;2.02;69.88;98618.19;1725651;83;21049;-79
2021/12/18 09:53:01;;;;;;;3.27;1.50;;;;;;;2.05;69.72;98629.59;1716587;83;21411;-79
2021/12/18 09:55:27;;;;;;;3.35;1.60;;;;;;;2.05;69.17;98647.01;1719578;83;21006;-79
2021/12/18 09:57:54;;;;;;;2.65;1.47;;;;;;;2.09;69.56;98630.09;1718670;83;20994;-79
2021/12/18 10:00:24;;;;;;;2.30;1.45;;;;;;;2.18;69.27;98628.45;1718661;83;21013;-79
2021/12/18 10:02:52;;;;;;;6.47;1.70;;;;;;;2.26;69.58;98628.14;1724506;83;21030;-79
2021/12/18 10:05:28;;;;;;;6.90;3.80;;;;;;;2.36;69.36;98631.75;1726693;82;20997;-78
2021/12/18 10:08:13;;;;;;;4.72;2.62;;;;;;;2.41;67.46;98627.91;1723850;82;21041;-79
2021/12/18 10:11:04;;;;;;;5.00;1.92;;;;;;;2.48;68.25;98634.97;1702737;83;21380;-79
2021/12/18 10:13:58;;;;;;;4.33;1.60;;;;;;;2.54;67.31;98642.03;1702008;84;21084;-79
2021/12/18 10:16:28;;;;;;;3.02;1.60;;;;;;;2.56;66.43;98630.72;1702421;83;21017;-78
2021/12/18 10:18:57;;;;;;;4.62;2.22;;;;;;;2.57;65.80;98634.23;1716925;83;21431;-79
2021/12/18 10:21:28;;;;;;;2.62;1.47;;;;;;;2.58;66.78;98630.30;1701915;83;21025;-78
2021/12/18 10:23:57;;;;;;;3.27;1.60;;;;;;;2.65;66.25;98620.79;1732307;81;21077;-79
2021/12/18 10:26:37;;;;;;;2.47;1.50;;;;;;;2.67;66.48;98629.56;1744848;82;21001;-79
2021/12/18 10:29:26;;;;;;;2.35;1.50;;;;;;;2.68;65.80;98618.64;1744823;82;21029;-79
2021/12/18 10:31:52;;;;;;;2.95;1.60;;;;;;;2.72;64.20;98618.72;1771362;81;21025;-79
2021/12/18 10:34:27;;;;;;;2.40;1.40;;;;;;;2.79;66.29;98611.81;1769743;81;21059;-79
2021/12/18 10:37:20;;;;;;;3.75;1.52;;;;;;;2.85;64.39;98610.98;1766578;80;20993;-79
2021/12/18 10:39:58;;;;;;;3.22;1.07;;;;;;;2.89;65.59;98608.86;1679979;83;20993;-79
2021/12/18 10:42:41;;;;;;;2.33;1.12;;;;;;;3.05;64.84;98605.98;1712211;82;21641;-79
2021/12/18 10:45:19;;;;;;;2.67;1.45;;;;;;;3.81;64.95;98604.47;1708445;82;20991;-79
2021/12/18 10:48:06;;;;;;;2.37;1.42;;;;;;;4.79;59.59;98593.63;1705913;82;21459;-79
2021/12/18 10:50:49;;;;;;;2.58;1.82;;;;;;;5.94;60.52;98581.95;1698436;82;20998;-80
2021/12/18 10:53:21;;;;;;;2.67;1.60;;;;;;;7.23;60.72;98575.32;1769222;79;20982;-80
2021/12/18 10:55:52;;;;;;;6.10;3.27;;;;;;;8.36;59.56;98576.52;1757937;81;21029;-80
2021/12/18 10:58:33;;;;;;;3.02;1.57;;;;;;;9.15;54.64;98570.27;1750377;79;21013;-80
2021/12/18 11:01:15;;;;;;;2.47;1.90;;;;;;;9.30;46.56;98555.93;1762418;80;21029;-80
2021/12/18 11:03:46;;;;;;;3.62;1.32;;;;;;;9.86;46.24;98553.71;1763327;80;20993;-80
2021/12/18 11:06:28;;;;;;;3.02;1.90;;;;;;;10.51;45.94;98549.45;1755442;80;21494;-80
2021/12/18 11:09:06;;;;;;;2.08;1.45;;;;;;;11.03;42.59;98558.06;1791759;80;20950;-80
2021/12/18 11:14:42;;;;;;;3.10;1.50;;;;;;;11.06;38.86;98554.47;1767691;81;20986;-80
2021/12/18 11:17:16;;;;;;;1.72;1.37;;;;;;;10.89;40.04;98556.16;1742398;81;21427;-80
2021/12/18 11:19:44;;;;;;;1.85;1.40;;;;;;;11.68;43.10;98542.39;1739044;82;21013;-79
2021/12/18 11:22:15;;;;;;;2.58;1.60;;;;;;;12.36;40.76;98542.84;1739274;82;21005;-77
2021/12/18 11:24:56;;;;;;;2.58;1.42;;;;;;;12.92;42.08;98541.25;1787455;80;21021;-80
2021/12/18 11:27:23;;;;;;;2.55;2.02;;;;;;;13.26;40.27;98544.20;1771665;80;21505;-80
2021/12/18 11:30:01;;;;;;;2.87;1.80;;;;;;;13.79;41.22;98541.16;1717118;82;21728;-80
2021/12/18 11:32:35;;;;;;;2.45;1.57;;;;;;;14.07;33.68;98539.37;1716827;84;21454;-77
2021/12/18 11:35:07;;;;;;;2.58;1.62;;;;;;;13.96;35.04;98545.06;1736702;80;21005;-79
2021/12/18 11:37:58;;;;;;;2.92;2.08;;;;;;;14.11;35.38;98554.30;1740812;81;21399;-78
2021/12/18 11:40:30;;;;;;;2.65;1.65;;;;;;;13.88;35.31;98544.44;1736319;81;21429;-78
2021/12/18 11:42:56;;;;;;;2.65;1.98;;;;;;;13.22;36.60;98554.97;1736604;81;20998;-76
2021/12/18 11:45:33;;;;;;;2.40;1.60;;;;;;;13.70;37.04;98565.47;1734943;81;21032;-75
2021/12/18 11:48:01;;;;;;;2.75;1.65;;;;;;;13.59;38.31;98554.69;1734469;82;21162;-78
2021/12/18 11:50:37;;;;;;;4.08;1.95;;;;;;;13.92;33.25;98554.08;1732684;82;21554;-78
2021/12/18 11:53:18;;;;;;;2.90;2.08;;;;;;;13.83;37.40;98550.80;1733927;83;21387;-78
2021/12/18 11:55:55;;;;;;;4.17;2.70;;;;;;;13.69;35.53;98543.73;1734231;82;20989;-78
2021/12/18 11:58:33;;;;;;;2.42;1.70;;;;;;;13.74;35.61;98559.09;1751457;81;21406;-78
2021/12/18 12:01:05;;;;;;;2.75;2.00;;;;;;;13.29;36.36;98557.39;1772817;80;21036;-78
2021/12/18 12:03:43;;;;;;;5.10;2.05;;;;;;;13.77;36.48;98550.12;1771331;81;21429;-78
2021/12/18 12:06:36;;;;;;;2.80;1.75;;;;;;;13.86;35.36;98547.16;1744985;80;21001;-77
2021/12/18 12:09:29;;;;;;;2.33;1.92;;;;;;;14.36;33.51;98541.42;1740523;81;20950;-78
2021/12/18 12:12:02;;;;;;;2.60;1.72;;;;;;;13.44;33.39;98556.05;1764273;81;21010;-78
2021/12/18 12:14:39;;;;;;;3.42;1.98;;;;;;;13.63;35.13;98540.83;1760637;81;20970;-77
2021/12/18 12:17:11;;;;;;;2.20;1.82;;;;;;;13.49;34.13;98551.06;1744601;81;21435;-77
2021/12/18 12:19:45;;;;;;;2.47;1.80;;;;;;;13.45;34.66;98556.89;1738368;81;20989;-78
2021/12/18 12:22:47;;;;;;;2.85;1.90;;;;;;;12.74;35.28;98556.83;1734248;82;21080;-77
2021/12/18 12:25:20;;;;;;;3.17;2.02;;;;;;;11.42;37.15;98562.94;1737621;81;21521;-77
2021/12/18 12:28:00;;;;;;;2.12;1.70;;;;;;;10.62;38.35;98561.13;1739261;82;21053;-77
2021/12/18 12:30:32;;;;;;;2.58;1.80;;;;;;;9.56;39.27;98569.22;1739276;82;20997;-78
2021/12/18 12:33:03;;;;;;;3.10;1.82;;;;;;;8.21;41.49;98568.34;1739543;81;20954;-77
2021/12/18 12:35:31;;;;;;;3.30;1.87;;;;;;;6.86;44.77;98580.36;1703752;83;21019;-77
2021/12/18 12:37:57;;;;;;;4.75;2.47;;;;;;;6.49;45.93;98573.92;1641985;85;21034;-77